Time;durP1;ratioP1;P1;durP2;ratioP2;P2;SDS_P1;SDS_P2;PMS_P1;PMS_P2;Temp;Humidity;BMP_temperature;BMP_pressure;BME280_temperature;BME280_humidity;BME280_pressure;Samples;Min_cycle;Max_cycle;Signal;HPM_P1;HPM_P2
2022/06/09 00:01:23;;;;;;;5.97;2.55;;;;;;;13.19;57.51;100552.41;4963021;28;20031;-77
2022/06/09 00:04:11;;;;;;;2.55;2.35;;;;;;;13.23;57.06;100553.94;4984868;28;20053;-76
2022/06/09 00:06:48;;;;;;;3.63;2.45;;;;;;;13.16;57.21;100556.97;4978440;28;20061;-79
2022/06/09 00:09:17;;;;;;;7.20;2.42;;;;;;;13.19;57.26;100560.28;4966857;28;20049;-76
2022/06/09 00:11:47;;;;;;;3.97;3.00;;;;;;;13.15;57.40;100558.75;4989312;28;20031;-75
2022/06/09 00:14:13;;;;;;;7.88;2.67;;;;;;;13.16;57.36;100554.34;4960103;28;20038;-78
2022/06/09 00:16:39;;;;;;;4.20;2.30;;;;;;;13.18;57.20;100555.09;4978276;28;20043;-75
2022/06/09 00:19:05;;;;;;;5.10;2.85;;;;;;;13.14;57.28;100559.69;4963714;28;20042;-77
2022/06/09 00:21:35;;;;;;;3.65;2.00;;;;;;;13.21;57.38;100557.56;4956119;28;20051;-77
2022/06/09 00:24:02;;;;;;;2.83;2.25;;;;;;;13.36;57.45;100561.97;4988012;28;20109;-77
2022/06/09 00:26:28;;;;;;;2.80;2.17;;;;;;;13.44;57.35;100564.13;4973542;28;20050;-76
2022/06/09 00:28:54;;;;;;;5.40;2.67;;;;;;;13.42;57.30;100558.97;4962801;28;20049;-77
2022/06/09 00:31:20;;;;;;;4.10;2.92;;;;;;;13.35;57.00;100568.13;4992356;28;20034;-77
2022/06/09 00:33:46;;;;;;;4.55;2.85;;;;;;;13.41;57.14;100570.41;4959727;28;20134;-75
2022/06/09 00:36:12;;;;;;;3.63;2.80;;;;;;;13.41;57.04;100566.94;4991793;28;20045;-76
2022/06/09 00:38:38;;;;;;;4.88;2.35;;;;;;;13.44;57.14;100564.13;4972778;28;20642;-75
2022/06/09 00:41:03;;;;;;;3.70;2.80;;;;;;;13.44;57.30;100569.38;4973326;28;20117;-75
2022/06/09 00:43:30;;;;;;;2.95;2.65;;;;;;;13.45;56.91;100566.69;4971483;28;20043;-75
2022/06/09 00:46:17;;;;;;;2.35;1.73;;;;;;;13.51;57.08;100574.19;4988838;28;20042;-76
2022/06/09 00:48:54;;;;;;;7.32;3.20;;;;;;;13.50;56.77;100572.50;4988161;28;20056;-77
2022/06/09 00:51:32;;;;;;;5.72;2.88;;;;;;;13.52;56.82;100573.28;4962632;28;20093;-78
2022/06/09 00:54:04;;;;;;;5.47;2.85;;;;;;;13.51;56.75;100568.94;4959610;28;20046;-78
2022/06/09 00:56:32;;;;;;;5.68;3.70;;;;;;;13.49;56.57;100565.53;4959802;28;20070;-76
2022/06/09 00:58:58;;;;;;;4.60;2.72;;;;;;;13.41;57.14;100567.78;4978966;28;20038;-77
2022/06/09 01:01:24;;;;;;;3.67;3.30;;;;;;;13.43;57.19;100568.53;4993966;28;20069;-76
2022/06/09 01:04:08;;;;;;;6.72;3.65;;;;;;;13.41;57.00;100565.16;4966575;28;20107;-76
2022/06/09 01:06:41;;;;;;;8.45;3.20;;;;;;;13.52;57.34;100572.44;4964574;28;20058;-77
2022/06/09 01:09:12;;;;;;;5.80;3.35;;;;;;;13.62;57.07;100575.41;4980562;28;20085;-77
2022/06/09 01:11:39;;;;;;;7.50;3.97;;;;;;;13.41;56.98;100569.56;4979569;28;20052;-79
2022/06/09 01:14:07;;;;;;;6.05;4.47;;;;;;;13.69;56.62;100566.22;4976651;28;20050;-77
2022/06/09 01:17:02;;;;;;;9.23;4.20;;;;;;;13.61;56.40;100563.22;4969770;28;20039;-76
2022/06/09 01:19:50;;;;;;;10.93;4.05;;;;;;;13.55;56.71;100574.03;4994785;28;20058;-77
2022/06/09 01:22:36;;;;;;;7.75;4.63;;;;;;;13.30;57.37;100575.41;5004672;28;20058;-78
2022/06/09 01:25:12;;;;;;;8.02;4.90;;;;;;;13.61;56.73;100584.22;5001508;28;20038;-76
2022/06/09 01:28:06;;;;;;;7.45;4.97;;;;;;;13.62;56.57;100585.91;4977769;28;20109;-76
2022/06/09 01:30:49;;;;;;;4.40;3.60;;;;;;;13.69;56.29;100577.56;4976276;28;20046;-77
2022/06/09 01:33:30;;;;;;;5.68;4.72;;;;;;;13.77;56.13;100585.00;4979364;28;20170;-77
2022/06/09 01:36:02;;;;;;;6.93;4.50;;;;;;;13.76;56.31;100574.59;4992320;28;20088;-77
2022/06/09 01:38:28;;;;;;;5.00;4.50;;;;;;;13.79;56.11;100577.91;4961569;28;20070;-76
2022/06/09 01:40:53;;;;;;;6.40;4.35;;;;;;;13.75;56.49;100579.00;4974776;28;20065;-77
2022/06/09 01:43:19;;;;;;;4.60;4.10;;;;;;;13.78;56.71;100585.84;4980346;28;20046;-75
2022/06/09 01:46:00;;;;;;;5.97;4.57;;;;;;;13.66;56.48;100579.53;4983482;28;20046;-74
2022/06/09 01:48:27;;;;;;;7.47;4.57;;;;;;;13.62;56.50;100583.28;4982375;28;20053;-75
2022/06/09 01:51:01;;;;;;;5.22;4.65;;;;;;;13.60;56.45;100572.00;4982032;28;20033;-76
2022/06/09 01:53:51;;;;;;;6.63;4.88;;;;;;;13.56;56.44;100567.84;4970238;28;20784;-75
2022/06/09 01:56:45;;;;;;;6.63;4.40;;;;;;;13.47;56.42;100570.06;4999596;28;20034;-77
2022/06/09 01:59:42;;;;;;;7.85;4.75;;;;;;;13.42;56.45;100564.22;4961306;28;20402;-77
2022/06/09 02:02:18;;;;;;;;;;;;;;;13.30;56.58;100575.41;4980000;28;20042;-77
2022/06/09 02:04:55;;;;;;;6.13;4.85;;;;;;;13.16;57.06;100588.44;5009151;28;20532;-76
2022/06/09 02:07:21;;;;;;;5.60;4.50;;;;;;;13.32;57.33;100584.91;4993076;28;20129;-77
2022/06/09 02:09:47;;;;;;;6.78;4.03;;;;;;;13.40;57.08;100583.63;4971263;28;20125;-75
2022/06/09 02:12:17;;;;;;;5.43;4.28;;;;;;;13.53;56.95;100588.06;4964181;28;20130;-76
2022/06/09 02:14:48;;;;;;;8.00;4.57;;;;;;;13.64;56.85;100590.13;4984071;28;20043;-77
2022/06/09 02:17:14;;;;;;;;;;;;;;;13.70;56.87;100597.66;4965278;28;20074;-76
2022/06/09 02:19:41;;;;;;;5.72;4.25;;;;;;;13.80;56.48;100595.34;4998231;28;19918;-76
2022/06/09 02:22:09;;;;;;;6.10;5.30;;;;;;;13.76;56.41;100600.84;4960179;28;20043;-77
2022/06/09 02:24:35;;;;;;;8.38;6.38;;;;;;;13.72;56.32;100600.22;4987456;28;20053;-75
2022/06/09 02:27:01;;;;;;;9.38;5.18;;;;;;;13.67;56.56;100600.47;4965377;28;20042;-78
2022/06/09 02:29:27;;;;;;;6.25;5.10;;;;;;;13.75;56.56;100605.28;4963664;28;20038;-76
2022/06/09 02:31:54;;;;;;;7.20;6.50;;;;;;;13.68;56.02;100609.19;4941784;28;20037;-78
2022/06/09 02:34:20;;;;;;;6.95;6.25;;;;;;;13.49;56.71;100607.56;4978783;28;20034;-76
2022/06/09 02:36:45;;;;;;;9.35;6.15;;;;;;;13.55;56.74;100622.13;4976926;28;20081;-79
2022/06/09 02:39:11;;;;;;;8.02;6.35;;;;;;;13.57;56.88;100614.22;4979152;28;20129;-77
2022/06/09 02:41:37;;;;;;;6.50;5.22;;;;;;;13.64;56.82;100619.00;4973458;28;20093;-79
2022/06/09 02:44:03;;;;;;;6.90;6.20;;;;;;;13.47;56.81;100619.94;4961611;28;20157;-77
2022/06/09 02:46:29;;;;;;;8.65;6.40;;;;;;;13.39;57.16;100616.91;4979780;28;20440;-78
2022/06/09 02:48:55;;;;;;;7.97;6.25;;;;;;;13.41;57.15;100615.03;4960759;28;20038;-77
2022/06/09 02:51:27;;;;;;;15.35;7.07;;;;;;;13.53;56.72;100618.75;4980008;28;20117;-78
2022/06/09 02:53:58;;;;;;;8.10;6.28;;;;;;;13.37;56.73;100631.03;4960919;28;20508;-78
2022/06/09 02:56:24;;;;;;;9.95;6.03;;;;;;;12.90;57.89;100632.72;4989166;28;20030;-78
2022/06/09 02:58:51;;;;;;;8.70;6.05;;;;;;;13.09;57.44;100640.41;4978319;28;20061;-79
2022/06/09 03:01:16;;;;;;;7.18;5.88;;;;;;;13.20;57.38;100639.84;4977293;28;20034;-76
2022/06/09 03:03:42;;;;;;;8.98;5.93;;;;;;;13.06;57.10;100633.56;4966745;28;20129;-76
2022/06/09 03:06:08;;;;;;;8.50;5.95;;;;;;;12.95;57.53;100638.53;4975504;28;20031;-77
2022/06/09 03:08:35;;;;;;;7.88;5.25;;;;;;;13.01;57.45;100638.22;4958139;28;20056;-76
2022/06/09 03:11:01;;;;;;;6.45;5.20;;;;;;;13.05;57.48;100639.75;4992691;28;20034;-76
2022/06/09 03:13:27;;;;;;;6.40;5.25;;;;;;;12.93;57.55;100644.81;4965850;28;21763;-77
2022/06/09 03:15:54;;;;;;;7.07;5.55;;;;;;;12.77;57.17;100645.63;4961861;28;20039;-77
2022/06/09 03:18:20;;;;;;;9.10;5.72;;;;;;;12.85;57.43;100658.34;4972923;28;20043;-76
2022/06/09 03:20:47;;;;;;;7.47;5.40;;;;;;;12.61;57.58;100656.03;4967060;28;20105;-77
2022/06/09 03:23:13;;;;;;;8.40;6.43;;;;;;;12.56;58.29;100652.81;4962901;28;20043;-76
2022/06/09 03:25:39;;;;;;;8.57;5.65;;;;;;;12.68;57.93;100662.66;4968076;28;20042;-78
2022/06/09 03:28:06;;;;;;;9.35;5.45;;;;;;;12.70;57.70;100673.09;4977295;28;20035;-79
2022/06/09 03:30:33;;;;;;;11.45;5.50;;;;;;;12.62;58.07;100673.44;4961245;28;20043;-75
2022/06/09 03:32:59;;;;;;;11.13;6.70;;;;;;;12.57;58.21;100675.47;4962272;28;20508;-77
2022/06/09 03:35:25;;;;;;;7.97;5.45;;;;;;;12.55;58.34;100672.06;4962432;28;20062;-77
2022/06/09 03:37:50;;;;;;;10.52;6.72;;;;;;;12.25;59.20;100675.34;4960423;28;20113;-78
2022/06/09 03:40:19;;;;;;;9.60;6.57;;;;;;;12.58;58.44;100679.81;4962671;28;20222;-76
2022/06/09 03:42:45;;;;;;;8.00;6.15;;;;;;;12.70;58.35;100681.81;4978364;28;20101;-75
2022/06/09 03:45:14;;;;;;;10.30;7.10;;;;;;;12.94;57.99;100684.09;4979576;28;20037;-78
2022/06/09 03:47:39;;;;;;;10.65;6.63;;;;;;;13.04;57.73;100687.91;4965579;28;20365;-79
2022/06/09 03:50:07;;;;;;;10.20;6.32;;;;;;;13.25;57.44;100687.66;4981460;28;20093;-77
2022/06/09 03:52:33;;;;;;;10.25;6.75;;;;;;;13.07;57.15;100685.13;4960955;28;20048;-76
2022/06/09 03:54:59;;;;;;;9.55;5.82;;;;;;;13.10;57.33;100690.19;4976967;28;20471;-77
2022/06/09 03:57:25;;;;;;;9.77;6.75;;;;;;;13.32;56.99;100679.38;4970412;28;20061;-78
2022/06/09 03:59:52;;;;;;;12.93;8.13;;;;;;;13.36;57.11;100682.72;4956986;28;20065;-77
2022/06/09 04:02:17;;;;;;;12.15;7.82;;;;;;;13.10;57.67;100695.44;4959461;28;20067;-76
2022/06/09 04:04:49;;;;;;;13.90;8.25;;;;;;;12.92;57.80;100699.06;4975219;28;20034;-77
2022/06/09 04:07:15;;;;;;;11.98;7.70;;;;;;;13.37;57.37;100688.78;4963859;28;20069;-77
2022/06/09 04:09:41;;;;;;;9.73;7.93;;;;;;;13.60;57.19;100696.25;4963838;28;20141;-75
2022/06/09 04:12:07;;;;;;;14.73;8.15;;;;;;;13.64;57.05;100699.59;4976988;28;20063;-76
2022/06/09 04:14:32;;;;;;;17.63;8.05;;;;;;;13.52;56.86;100701.94;4974895;28;20510;-77
2022/06/09 04:16:58;;;;;;;15.20;8.98;;;;;;;12.97;58.31;100698.81;4957415;28;20097;-75
2022/06/09 04:19:24;;;;;;;12.88;8.13;;;;;;;13.36;57.45;100711.59;4976791;28;20383;-78
2022/06/09 04:21:51;;;;;;;12.95;8.75;;;;;;;13.56;57.24;100709.63;4975971;28;20056;-76
2022/06/09 04:24:18;;;;;;;16.42;9.82;;;;;;;13.24;57.56;100717.47;4990108;28;20050;-75
2022/06/09 04:26:45;;;;;;;14.27;9.15;;;;;;;13.49;57.44;100717.81;4964534;28;20035;-77
2022/06/09 04:29:12;;;;;;;15.93;9.77;;;;;;;13.66;57.13;100711.69;4974314;28;20104;-78
2022/06/09 04:31:39;;;;;;;16.45;10.07;;;;;;;13.49;57.17;100717.00;4961942;28;20368;-79
2022/06/09 04:34:05;;;;;;;18.15;10.25;;;;;;;13.66;56.75;100718.72;4977739;28;20114;-78
2022/06/09 04:36:30;;;;;;;22.05;10.18;;;;;;;13.68;57.20;100722.97;4978103;28;20030;-79
2022/06/09 04:38:56;;;;;;;14.70;10.23;;;;;;;13.41;57.25;100730.53;4975239;28;20055;-77
2022/06/09 04:41:22;;;;;;;15.75;9.38;;;;;;;13.42;57.55;100732.22;4974595;28;20027;-79
2022/06/09 04:43:48;;;;;;;16.88;9.95;;;;;;;13.40;57.43;100739.34;4972188;28;20563;-76
2022/06/09 04:46:16;;;;;;;17.33;9.25;;;;;;;13.73;57.06;100741.94;4955971;28;20038;-77
2022/06/09 04:48:42;;;;;;;15.40;9.48;;;;;;;13.90;56.44;100743.63;4957513;28;20802;-77
2022/06/09 04:51:10;;;;;;;17.73;10.57;;;;;;;13.86;56.30;100742.09;4961985;28;20122;-75
2022/06/09 04:53:37;;;;;;;19.83;10.82;;;;;;;13.35;57.68;100746.63;4961733;28;20050;-77
2022/06/09 04:56:03;;;;;;;20.20;11.15;;;;;;;13.66;56.89;100756.34;4976752;28;20125;-75
2022/06/09 04:58:29;;;;;;;19.35;10.73;;;;;;;13.61;56.90;100749.66;4958281;28;20061;-76
2022/06/09 05:00:54;;;;;;;18.10;9.82;;;;;;;13.71;56.68;100756.09;4980898;28;20511;-76
2022/06/09 05:03:21;;;;;;;23.20;10.80;;;;;;;13.34;57.41;100763.31;4963004;28;20246;-78
2022/06/09 05:05:49;;;;;;;19.73;11.20;;;;;;;13.68;56.84;100766.75;4978813;28;20038;-76
2022/06/09 05:08:15;;;;;;;17.98;10.27;;;;;;;13.83;56.11;100763.31;4965418;28;20039;-77
2022/06/09 05:10:43;;;;;;;18.25;10.38;;;;;;;13.88;55.94;100766.50;4992676;28;20066;-77
2022/06/09 05:13:09;;;;;;;13.18;8.65;;;;;;;13.41;57.11;100756.81;4987175;28;20505;-76
2022/06/09 05:15:38;;;;;;;15.20;8.63;;;;;;;13.22;57.24;100771.81;4975499;28;20038;-77
2022/06/09 05:18:04;;;;;;;14.35;8.55;;;;;;;13.48;56.39;100773.06;4975887;28;20038;-76
2022/06/09 05:20:30;;;;;;;17.20;8.35;;;;;;;13.75;56.23;100772.53;4959510;28;20108;-76
2022/06/09 05:22:57;;;;;;;12.95;7.65;;;;;;;13.69;56.01;100778.94;4962454;28;20062;-77
2022/06/09 05:25:31;;;;;;;15.05;8.50;;;;;;;13.77;56.22;100776.75;4977464;28;20117;-75
2022/06/09 05:27:57;;;;;;;15.13;8.68;;;;;;;13.68;56.41;100779.91;4962123;28;20158;-77
2022/06/09 05:30:24;;;;;;;12.25;7.82;;;;;;;13.30;57.35;100786.25;4980322;28;20121;-79
2022/06/09 05:32:50;;;;;;;11.20;6.47;;;;;;;13.35;56.91;100786.00;4972030;28;20093;-77
2022/06/09 05:35:16;;;;;;;11.23;6.45;;;;;;;13.71;56.20;100784.97;4972260;28;20035;-77
2022/06/09 05:45:58;;;;;;;7.53;4.22;;;;;;;13.26;56.37;100810.09;4972535;28;20038;-77
2022/06/09 05:48:25;;;;;;;8.25;4.63;;;;;;;13.43;56.41;100815.31;4963887;28;20046;-78
2022/06/09 05:50:52;;;;;;;8.77;4.78;;;;;;;13.58;56.04;100820.72;4975415;28;20494;-79
2022/06/09 05:53:18;;;;;;;7.47;5.45;;;;;;;12.77;58.26;100830.97;4959070;28;20052;-79
2022/06/09 05:55:43;;;;;;;9.52;5.10;;;;;;;13.16;57.16;100843.00;4965895;28;20035;-77
2022/06/09 05:58:10;;;;;;;7.88;5.70;;;;;;;12.82;58.15;100832.44;4969478;28;20116;-77
2022/06/09 06:00:36;;;;;;;9.98;5.13;;;;;;;13.27;56.66;100853.78;4965178;28;20952;-79
2022/06/09 06:03:03;;;;;;;10.35;5.95;;;;;;;12.80;57.94;100851.81;4958718;28;20055;-80
2022/06/09 06:08:12;;;;;;;9.55;5.28;;;;;;;13.10;57.65;100862.53;4973487;28;20050;-77
2022/06/09 06:10:39;;;;;;;8.63;4.70;;;;;;;12.95;57.49;100871.19;4962786;28;20035;-76
2022/06/09 06:13:06;;;;;;;7.95;5.10;;;;;;;13.42;56.19;100866.13;4973068;28;20038;-76
2022/06/09 06:15:33;;;;;;;7.55;4.22;;;;;;;13.45;56.04;100871.22;4985491;28;20050;-78
2022/06/09 06:18:03;;;;;;;5.57;3.78;;;;;;;13.28;56.39;100877.34;4961417;28;20050;-79
2022/06/09 06:23:26;;;;;;;7.63;3.95;;;;;;;13.49;55.89;100877.16;4959975;28;21014;-77
2022/06/09 06:25:53;;;;;;;5.75;3.33;;;;;;;13.55;55.90;100895.22;4974070;28;20035;-76
2022/06/09 06:28:26;;;;;;;6.60;3.45;;;;;;;13.68;55.66;100895.47;4978864;28;20038;-77
2022/06/09 06:30:55;;;;;;;4.10;3.08;;;;;;;13.27;56.38;100896.66;4982750;28;20038;-76
2022/06/09 06:33:22;;;;;;;4.18;2.58;;;;;;;13.47;55.47;100898.25;4971259;28;20382;-80
2022/06/09 06:35:49;;;;;;;5.93;2.20;;;;;;;13.48;55.63;100905.19;4983990;28;20035;-75
2022/06/09 06:38:15;;;;;;;5.32;3.40;;;;;;;13.67;54.80;100904.25;4959824;28;20053;-77
2022/06/09 06:40:41;;;;;;;3.67;2.67;;;;;;;13.81;54.82;100901.75;4974937;28;20046;-78
2022/06/09 06:43:06;;;;;;;5.22;3.10;;;;;;;14.11;54.28;100901.03;4980875;28;20065;-76
2022/06/09 06:45:32;;;;;;;3.80;2.90;;;;;;;14.07;53.97;100913.47;4976417;28;20121;-78
2022/06/09 06:47:58;;;;;;;3.47;2.70;;;;;;;14.36;53.63;100914.50;4974748;28;20062;-77
2022/06/09 06:50:24;;;;;;;4.97;2.95;;;;;;;14.48;52.99;100917.44;4965978;28;20043;-78
2022/06/09 06:52:49;;;;;;;5.40;2.83;;;;;;;14.91;51.99;100918.47;4959706;28;20043;-78
2022/06/09 06:55:18;;;;;;;6.30;3.55;;;;;;;15.25;51.55;100924.44;4977702;28;20031;-78
2022/06/09 06:57:44;;;;;;;4.72;3.00;;;;;;;15.20;51.33;100928.25;4977848;28;20046;-77
2022/06/09 07:00:15;;;;;;;4.03;3.08;;;;;;;15.02;51.05;100931.03;4970476;28;20111;-75
2022/06/09 07:02:41;;;;;;;5.13;3.90;;;;;;;14.07;53.06;100945.00;4984451;28;20150;-75
2022/06/09 07:05:08;;;;;;;5.88;3.55;;;;;;;14.33;52.61;100943.59;4972949;28;20046;-77
2022/06/09 07:07:35;;;;;;;3.95;2.63;;;;;;;14.63;52.40;100945.50;4959854;28;20050;-78
2022/06/09 07:10:01;;;;;;;5.13;3.28;;;;;;;14.30;53.35;100951.69;4958189;28;21136;-78
2022/06/09 07:12:27;;;;;;;3.92;2.65;;;;;;;15.99;50.77;100949.84;4973506;28;20082;-78
2022/06/09 07:14:52;;;;;;;5.40;2.67;;;;;;;15.93;49.41;100955.47;4974779;28;20046;-78
2022/06/09 07:17:17;;;;;;;4.53;3.63;;;;;;;15.51;50.41;100954.50;4976634;28;20042;-77
2022/06/09 07:19:43;;;;;;;5.00;2.75;;;;;;;15.06;51.21;100963.25;4960250;28;20556;-78
2022/06/09 07:22:09;;;;;;;4.45;2.83;;;;;;;14.90;50.47;100972.06;4988064;28;20820;-78
2022/06/09 07:24:35;;;;;;;5.95;3.00;;;;;;;15.40;50.64;100970.09;4972305;28;20049;-77
2022/06/09 07:27:00;;;;;;;4.80;3.35;;;;;;;15.67;48.44;100975.50;4956177;28;20046;-78
2022/06/09 07:29:26;;;;;;;2.75;2.25;;;;;;;15.87;48.75;100973.47;4961606;28;20022;-75
2022/06/09 07:31:52;;;;;;;2.97;2.33;;;;;;;15.22;49.47;100982.56;4973803;28;20508;-77
2022/06/09 07:34:18;;;;;;;4.03;2.75;;;;;;;15.27;49.61;100980.50;4988376;28;20334;-78
2022/06/09 07:36:44;;;;;;;3.10;2.20;;;;;;;14.87;51.15;100989.78;4955715;28;20038;-76
2022/06/09 07:39:10;;;;;;;3.97;3.58;;;;;;;14.55;51.69;100993.28;4956592;28;20956;-77
2022/06/09 07:41:36;;;;;;;6.00;2.83;;;;;;;15.13;51.12;100994.44;4974086;28;20689;-78
2022/06/09 07:44:04;;;;;;;3.40;3.05;;;;;;;15.11;50.34;100998.94;4952920;28;20042;-77
2022/06/09 07:46:31;;;;;;;3.47;3.17;;;;;;;14.97;50.93;100999.72;4957736;28;20121;-77
2022/06/09 07:48:57;;;;;;;5.95;3.63;;;;;;;16.31;49.15;100990.97;4967055;28;20579;-76
2022/06/09 07:51:23;;;;;;;5.95;3.03;;;;;;;20.04;41.39;100988.69;4980809;28;20043;-77
2022/06/09 07:53:48;;;;;;;2.83;2.55;;;;;;;22.33;35.52;100995.44;4959616;28;20135;-78
2022/06/09 07:56:14;;;;;;;3.33;3.00;;;;;;;24.03;33.42;100995.00;4961470;28;20031;-78
2022/06/09 07:58:41;;;;;;;2.70;2.28;;;;;;;24.32;32.06;100997.53;4973482;28;20055;-77
2022/06/09 08:01:06;;;;;;;2.08;1.75;;;;;;;24.36;31.56;100998.09;4986885;28;20087;-78
2022/06/09 08:03:32;;;;;;;2.70;2.13;;;;;;;23.00;32.11;101016.06;4973124;28;20132;-76
2022/06/09 08:05:58;;;;;;;3.45;1.83;;;;;;;19.79;38.14;101012.75;4955721;28;20061;-76
2022/06/09 08:08:24;;;;;;;3.13;2.33;;;;;;;17.43;42.91;101018.09;4955364;28;20541;-77
2022/06/09 08:10:49;;;;;;;3.72;2.63;;;;;;;17.66;42.90;101021.84;4955208;28;20050;-76
2022/06/09 08:13:16;;;;;;;2.42;1.95;;;;;;;17.83;42.56;101024.22;4967668;28;20613;-78
2022/06/09 08:15:44;;;;;;;3.78;2.15;;;;;;;16.53;44.86;101025.63;4973286;28;20151;-76
2022/06/09 08:18:10;;;;;;;2.67;2.38;;;;;;;16.81;44.92;101030.03;4967449;28;20406;-78
2022/06/09 08:20:38;;;;;;;2.17;1.70;;;;;;;16.59;45.50;101029.66;4971218;28;20038;-77
2022/06/09 08:23:12;;;;;;;3.85;2.30;;;;;;;16.50;46.25;101036.38;4968846;28;20051;-78
2022/06/09 08:25:44;;;;;;;2.20;1.88;;;;;;;16.57;46.03;101044.75;4955187;28;20046;-77
2022/06/09 08:28:11;;;;;;;2.33;1.75;;;;;;;16.94;44.87;101045.94;4954604;28;20065;-78
2022/06/09 08:30:37;;;;;;;4.63;1.90;;;;;;;16.76;44.34;101045.31;4955689;28;20039;-77
2022/06/09 08:33:03;;;;;;;3.28;1.50;;;;;;;17.13;43.63;101061.41;4958500;28;20126;-78
2022/06/09 08:35:30;;;;;;;2.67;1.75;;;;;;;17.27;43.82;101052.63;4966816;28;20465;-78
2022/06/09 08:37:55;;;;;;;2.25;2.05;;;;;;;17.22;43.41;101068.78;4967652;28;20126;-79
2022/06/09 08:40:29;;;;;;;2.22;1.60;;;;;;;17.64;41.46;101058.97;4954215;28;20216;-79
2022/06/09 08:43:23;;;;;;;3.40;1.60;;;;;;;18.48;40.22;101076.16;4966972;28;20047;-78
2022/06/09 08:45:52;;;;;;;1.90;1.60;;;;;;;19.44;39.34;101080.72;4953986;28;20046;-78
2022/06/09 08:48:22;;;;;;;2.50;1.85;;;;;;;18.50;39.14;101083.13;4970407;28;20058;-77
2022/06/09 08:51:17;;;;;;;2.92;1.88;;;;;;;18.21;40.77;101081.56;4960427;28;20900;-77
2022/06/09 08:53:53;;;;;;;3.85;1.83;;;;;;;19.34;39.99;101086.81;4950649;28;20181;-78
2022/06/09 08:56:26;;;;;;;2.08;1.65;;;;;;;18.75;38.80;101091.03;4969184;28;20033;-76
2022/06/09 08:59:03;;;;;;;2.45;2.13;;;;;;;19.88;38.37;101095.13;4965329;28;20044;-78
2022/06/09 09:02:01;;;;;;;4.78;1.45;;;;;;;18.91;39.11;101098.75;4987164;28;20018;-78
2022/06/09 09:04:42;;;;;;;4.70;1.23;;;;;;;19.44;39.13;101103.75;4925429;28;20050;-78
2022/06/09 09:07:11;;;;;;;;;;;;;;;17.77;41.02;101103.09;4971708;28;20050;-75
2022/06/09 09:09:37;;;;;;;3.42;2.13;;;;;;;17.92;41.28;101107.34;4983888;28;19968;-78
2022/06/09 09:12:08;;;;;;;2.33;1.45;;;;;;;18.56;40.97;101101.22;4972471;28;20730;-76
2022/06/09 09:14:46;;;;;;;1.35;1.02;;;;;;;18.25;40.32;101111.28;4970111;28;20062;-79
2022/06/09 09:17:26;;;;;;;2.88;1.73;;;;;;;17.99;40.90;101116.56;4966232;28;20038;-78
2022/06/09 09:20:30;;;;;;;2.42;1.42;;;;;;;19.21;39.42;101122.19;4968169;28;20033;-78
2022/06/09 09:23:11;;;;;;;2.00;1.52;;;;;;;20.30;37.26;101118.50;4981983;28;20608;-78
2022/06/09 09:25:57;;;;;;;3.97;1.40;;;;;;;19.65;37.68;101112.75;4972959;28;20049;-79
2022/06/09 09:28:30;;;;;;;3.50;1.65;;;;;;;19.78;38.88;101123.31;4967710;28;20045;-77
2022/06/09 09:31:28;;;;;;;2.85;1.85;;;;;;;19.59;38.04;101130.94;4951710;28;20057;-76
2022/06/09 09:33:56;;;;;;;3.30;1.45;;;;;;;20.12;39.36;101126.03;4941241;28;20062;-76
2022/06/09 09:36:25;;;;;;;4.85;1.70;;;;;;;21.39;37.02;101130.25;4971626;28;20492;-78
2022/06/09 09:38:55;;;;;;;2.08;1.38;;;;;;;19.82;37.39;101127.41;4966242;28;20051;-75
2022/06/09 09:41:34;;;;;;;1.50;0.77;;;;;;;17.86;39.48;101128.91;4952052;28;20092;-76
2022/06/09 09:44:14;;;;;;;2.80;0.75;;;;;;;18.73;38.66;101135.31;4969488;28;20034;-78
2022/06/09 09:46:41;;;;;;;2.67;1.52;;;;;;;18.65;38.34;101132.34;4969936;28;20039;-78
2022/06/09 09:49:20;;;;;;;1.25;0.85;;;;;;;20.35;37.35;101136.72;4969347;28;20653;-79
2022/06/09 09:51:46;;;;;;;2.08;1.58;;;;;;;19.02;39.14;101145.66;4973058;28;20038;-78
2022/06/09 09:54:50;;;;;;;2.78;0.95;;;;;;;19.61;37.96;101139.63;4969245;28;20066;-77
2022/06/09 09:57:21;;;;;;;2.78;0.82;;;;;;;21.11;35.69;101143.09;4906532;29;20053;-77
2022/06/09 09:59:51;;;;;;;1.08;0.35;;;;;;;20.76;35.39;101141.44;4905678;28;20426;-77
2022/06/09 10:08:38;;;;;;;1.63;0.30;;;;;;;19.88;38.28;101149.97;4987797;28;20112;-77
2022/06/09 10:14:00;;;;;;;4.88;0.82;;;;;;;20.56;35.67;101150.97;4987202;28;20452;-78
2022/06/09 10:16:29;;;;;;;2.00;0.55;;;;;;;20.71;35.48;101159.56;4978433;28;20073;-76
2022/06/09 10:19:01;;;;;;;0.80;0.20;;;;;;;19.56;37.60;101163.81;4971392;28;20101;-73
2022/06/09 10:21:26;;;;;;;1.35;0.20;;;;;;;19.22;38.02;101170.72;4975737;28;20035;-76
2022/06/09 10:24:07;;;;;;;1.88;0.30;;;;;;;19.19;38.25;101185.03;4956501;28;20133;-78
2022/06/09 10:26:36;;;;;;;4.22;0.30;;;;;;;20.40;36.54;101183.19;4963362;28;20038;-77
2022/06/09 10:29:30;;;;;;;0.95;0.30;;;;;;;20.00;36.91;101186.19;4970039;28;20072;-76
2022/06/09 10:32:13;;;;;;;1.25;0.40;;;;;;;19.45;37.49;101195.53;4970193;28;20066;-77
2022/06/09 10:34:45;;;;;;;1.95;0.30;;;;;;;20.67;35.75;101190.81;4988155;28;20549;-82
2022/06/09 10:37:10;;;;;;;;;;;;;;;20.87;36.01;101194.59;4987624;28;20050;-77
2022/06/09 10:39:41;;;;;;;2.22;0.20;;;;;;;20.61;34.90;101188.63;4978338;28;19918;-77
2022/06/09 10:42:21;;;;;;;1.48;0.50;;;;;;;20.87;34.41;101202.56;4974319;28;20061;-78
2022/06/09 10:45:03;;;;;;;5.68;0.40;;;;;;;20.29;35.35;101201.75;4988250;28;20037;-79
2022/06/09 10:57:00;;;;;;;0.63;0.13;;;;;;;20.99;35.50;101221.16;4973331;28;21040;-76
2022/06/09 10:59:32;;;;;;;0.80;0.30;;;;;;;20.26;35.61;101231.16;4973134;28;20948;-78
2022/06/09 11:01:58;;;;;;;0.93;0.10;;;;;;;21.24;34.55;101226.19;4971707;28;20030;-78
2022/06/09 11:04:31;;;;;;;2.28;0.40;;;;;;;21.68;33.27;101224.44;4962618;28;20153;-76
2022/06/09 11:07:35;;;;;;;1.85;0.25;;;;;;;21.93;32.65;101222.41;4961374;28;20038;-77
2022/06/09 11:10:06;;;;;;;0.50;0.15;;;;;;;21.97;32.29;101229.19;4977854;28;20957;-79
2022/06/09 11:13:03;;;;;;;1.80;0.47;;;;;;;20.17;34.00;101237.13;4957525;28;20069;-76
2022/06/09 11:16:03;;;;;;;1.88;0.20;;;;;;;21.18;34.26;101234.69;4960283;28;20637;-76
2022/06/09 11:18:39;;;;;;;3.15;0.40;;;;;;;20.57;34.07;101242.94;4959798;28;20136;-77
2022/06/09 11:21:40;;;;;;;1.73;0.10;;;;;;;20.16;34.85;101252.22;4963724;28;20023;-78
2022/06/09 11:24:38;;;;;;;4.88;0.60;;;;;;;21.03;35.01;101249.19;4959320;28;20085;-78
2022/06/09 11:27:30;;;;;;;1.65;0.30;;;;;;;22.26;33.42;101249.88;4964803;28;20038;-79
2022/06/09 11:30:20;;;;;;;1.70;0.10;;;;;;;21.33;32.63;101252.06;4946388;28;20034;-76
2022/06/09 11:32:48;;;;;;;2.03;0.57;;;;;;;21.91;33.46;101256.28;4959858;28;20042;-76
2022/06/09 11:35:44;;;;;;;4.00;0.55;;;;;;;20.60;33.57;101263.97;4960728;28;20031;-78
2022/06/09 11:38:21;;;;;;;3.58;0.20;;;;;;;20.20;35.68;101266.13;4962299;28;20043;-75
2022/06/09 11:41:15;;;;;;;2.22;0.28;;;;;;;21.49;32.42;101251.72;4948224;28;20034;-78
2022/06/09 11:44:06;;;;;;;3.13;0.57;;;;;;;21.83;32.33;101272.06;4959399;28;20064;-77
2022/06/09 11:46:37;;;;;;;2.45;0.20;;;;;;;20.83;33.29;101272.81;4975960;28;20057;-78
2022/06/09 11:49:09;;;;;;;1.98;0.22;;;;;;;20.90;34.34;101268.72;4958073;28;20453;-76
2022/06/09 11:51:36;;;;;;;1.48;0.25;;;;;;;21.28;32.26;101272.00;4948879;28;20041;-76
2022/06/09 11:54:05;;;;;;;3.42;0.20;;;;;;;21.11;32.17;101273.31;4974615;28;20053;-77
2022/06/09 11:56:40;;;;;;;2.17;0.10;;;;;;;22.30;31.79;101272.63;4994215;28;20057;-75
2022/06/09 11:59:12;;;;;;;3.85;0.40;;;;;;;22.98;30.83;101273.88;4973183;28;20158;-76
2022/06/09 12:01:37;;;;;;;7.55;0.40;;;;;;;22.21;31.17;101278.72;4965004;28;20026;-78
2022/06/09 12:04:22;;;;;;;0.98;0.15;;;;;;;22.17;32.85;101284.28;4962158;28;20085;-77
2022/06/09 12:07:12;;;;;;;5.53;0.40;;;;;;;22.03;31.92;101295.22;4954177;28;20049;-78
2022/06/09 12:10:02;;;;;;;4.50;0.32;;;;;;;22.04;32.95;101291.56;4947622;28;20039;-76
2022/06/09 12:12:38;;;;;;;4.45;0.57;;;;;;;21.56;32.55;101287.47;4974853;28;20050;-76
2022/06/09 12:15:29;;;;;;;2.60;0.60;;;;;;;20.99;33.65;101300.88;4948822;28;20030;-77